createdAt,value
2018-03-20T00:01:23.335Z,62.24
2018-03-20T00:03:50.898Z,61.71
2018-03-20T00:06:18.487Z,62.29
2018-03-20T00:08:46.486Z,64.47
2018-03-20T00:11:14.098Z,67.27
2018-03-20T00:13:42.255Z,68.53
2018-03-20T00:16:09.834Z,68.91
2018-03-20T00:18:37.436Z,68.88
2018-03-20T00:21:05.001Z,68.81
2018-03-20T00:23:32.552Z,68.42
2018-03-20T00:26:00.170Z,68.20
2018-03-20T00:28:28.449Z,67.91
2018-03-20T00:30:56.045Z,67.69
2018-03-20T00:33:23.601Z,66.53
2018-03-20T00:35:51.201Z,66.74
2018-03-20T00:38:18.976Z,66.93
2018-03-20T00:40:46.568Z,66.36
2018-03-20T00:43:14.805Z,66.53
2018-03-20T00:45:42.409Z,67.09
2018-03-20T00:48:10.017Z,68.08
2018-03-20T00:50:37.629Z,68.58
2018-03-20T00:53:05.188Z,68.82
2018-03-20T00:55:33.006Z,67.66
2018-03-20T00:58:00.615Z,67.75
2018-03-20T01:00:28.212Z,67.26
2018-03-20T01:02:56.633Z,67.00
2018-03-20T01:05:24.237Z,66.32
2018-03-20T01:07:51.816Z,66.03
2018-03-20T01:10:19.455Z,66.64
2018-03-20T01:12:47.533Z,67.92
2018-03-20T01:15:15.474Z,69.00
2018-03-20T01:17:43.048Z,70.05
2018-03-20T01:20:10.591Z,70.15
2018-03-20T01:22:38.201Z,70.39
2018-03-20T01:25:05.769Z,69.68
2018-03-20T01:27:33.355Z,69.71
2018-03-20T01:30:00.911Z,70.19
2018-03-20T01:32:28.516Z,68.49
2018-03-20T01:34:56.064Z,69.25
2018-03-20T01:37:23.635Z,70.10
2018-03-20T01:39:51.577Z,69.98
2018-03-20T01:42:19.136Z,70.63
2018-03-20T01:44:46.747Z,70.74
2018-03-20T01:47:14.299Z,69.98
2018-03-20T01:49:41.896Z,70.12
2018-03-20T01:52:09.515Z,69.84
2018-03-20T01:54:37.059Z,68.98
2018-03-20T01:57:04.615Z,69.57
2018-03-20T01:59:32.243Z,68.27
2018-03-20T02:02:00.169Z,66.53
2018-03-20T02:04:27.746Z,65.50
2018-03-20T02:06:55.309Z,64.55
2018-03-20T02:09:23.262Z,63.61
2018-03-20T02:11:51.193Z,62.52
2018-03-20T02:14:18.805Z,61.74
2018-03-20T02:16:46.377Z,61.07
2018-03-20T02:19:13.968Z,60.33
2018-03-20T02:21:41.561Z,59.54
2018-03-20T02:24:09.144Z,60.16
2018-03-20T02:26:36.732Z,59.98
2018-03-20T02:29:04.280Z,59.33
2018-03-20T02:31:32.229Z,59.04
2018-03-20T02:33:59.798Z,58.16
2018-03-20T02:36:27.380Z,59.42
2018-03-20T02:38:54.936Z,61.02
2018-03-20T02:41:23.168Z,60.74
2018-03-20T02:43:51.034Z,63.21
2018-03-20T02:46:22.615Z,62.34
2018-03-20T02:48:50.209Z,61.13
2018-03-20T02:51:17.755Z,60.26
2018-03-20T02:53:45.352Z,59.20
2018-03-20T02:56:13.183Z,59.88
2018-03-20T02:58:40.775Z,61.91
2018-03-20T03:01:08.321Z,62.83
2018-03-20T03:03:35.926Z,63.73
2018-03-20T03:06:03.477Z,65.86
2018-03-20T03:08:31.086Z,66.44
2018-03-20T03:10:58.628Z,67.29
2018-03-20T03:13:26.227Z,66.38
2018-03-20T03:15:53.783Z,66.31
2018-03-20T03:18:21.328Z,65.77
2018-03-20T03:20:48.918Z,64.74
2018-03-20T03:23:16.460Z,64.26
2018-03-20T03:25:44.003Z,63.58
2018-03-20T03:28:12.032Z,64.02
2018-03-20T03:30:40.024Z,63.13
2018-03-20T03:33:07.676Z,62.48
2018-03-20T03:35:35.228Z,62.68
2018-03-20T03:38:03.492Z,63.96
2018-03-20T03:40:31.032Z,63.70
2018-03-20T03:42:58.629Z,62.12
2018-03-20T03:45:26.205Z,62.11
2018-03-20T03:47:54.619Z,62.90
2018-03-20T03:50:22.170Z,62.56
2018-03-20T03:52:49.719Z,62.06
2018-03-20T03:55:17.311Z,62.09
2018-03-20T03:57:44.861Z,62.17
2018-03-20T04:00:12.468Z,63.48
2018-03-20T04:02:40.257Z,64.43
2018-03-20T04:05:07.861Z,64.29
2018-03-20T04:07:35.810Z,64.61
2018-03-20T04:10:03.397Z,64.39
2018-03-20T04:12:31.109Z,65.06
2018-03-20T04:14:59.101Z,65.25
2018-03-20T04:17:26.692Z,64.96
2018-03-20T04:19:54.240Z,64.05
2018-03-20T04:22:21.833Z,62.79
2018-03-20T04:24:49.380Z,63.11
2018-03-20T04:27:17.027Z,62.04
2018-03-20T04:29:44.581Z,62.75
2018-03-20T04:32:12.110Z,63.57
2018-03-20T04:34:39.696Z,63.67
2018-03-20T04:37:08.057Z,64.32
2018-03-20T04:39:35.598Z,63.59
2018-03-20T04:42:03.902Z,65.43
2018-03-20T04:44:31.445Z,66.80
2018-03-20T04:46:59.035Z,67.55
2018-03-20T04:49:27.042Z,68.32
2018-03-20T04:51:54.579Z,68.34
2018-03-20T04:54:22.159Z,67.74
2018-03-20T04:56:49.715Z,68.08
2018-03-20T04:59:17.336Z,66.75
2018-03-20T05:01:45.179Z,65.46
2018-03-20T05:04:12.769Z,66.33
2018-03-20T05:06:40.368Z,67.47
2018-03-20T05:09:07.908Z,67.85
2018-03-20T05:11:35.496Z,67.00
2018-03-20T05:14:03.096Z,66.09
2018-03-20T05:16:30.673Z,66.84
2018-03-20T05:18:59.226Z,67.16
2018-03-20T05:21:29.607Z,66.70
2018-03-20T05:23:57.656Z,66.91
2018-03-20T05:26:25.223Z,68.59
2018-03-20T05:28:52.798Z,70.17
2018-03-20T05:31:20.371Z,69.05
2018-03-20T05:33:48.342Z,67.07
2018-03-20T05:36:15.952Z,65.77
2018-03-20T05:38:44.512Z,64.62
2018-03-20T05:41:13.508Z,64.18
2018-03-20T05:43:42.281Z,63.05
2018-03-20T05:46:09.888Z,62.84
2018-03-20T05:48:54.400Z,62.40
2018-03-20T05:54:24.573Z,62.27
2018-03-20T05:56:52.472Z,62.91
2018-03-20T05:59:20.100Z,64.79
2018-03-20T06:01:48.139Z,65.21
2018-03-20T06:04:16.701Z,64.25
2018-03-20T06:06:44.381Z,64.06
2018-03-20T06:09:12.150Z,63.96
2018-03-20T06:11:39.909Z,64.30
2018-03-20T06:14:07.544Z,65.81
2018-03-20T06:16:35.109Z,67.05
2018-03-20T06:19:03.506Z,67.59
2018-03-20T06:21:31.884Z,67.92
2018-03-20T06:23:59.545Z,66.63
2018-03-20T06:26:27.156Z,65.50
2018-03-20T06:28:54.733Z,64.82
2018-03-20T06:31:22.284Z,64.67
2018-03-20T06:33:49.885Z,64.72
2018-03-20T06:36:17.880Z,64.15
2018-03-20T06:38:45.442Z,63.69
2018-03-20T06:41:13.134Z,62.99
2018-03-20T06:43:40.700Z,62.97
2018-03-20T06:46:08.874Z,62.72
2018-03-20T06:48:36.480Z,63.38
2018-03-20T06:51:04.067Z,63.28
2018-03-20T06:53:31.786Z,62.02
2018-03-20T06:56:00.567Z,60.80
2018-03-20T06:58:29.636Z,59.82
2018-03-20T07:00:57.323Z,59.78
2018-03-20T07:03:24.921Z,59.75
2018-03-20T07:05:52.991Z,59.72
2018-03-20T07:08:20.900Z,59.42
2018-03-20T07:10:48.468Z,58.43
2018-03-20T07:13:16.428Z,57.34
2018-03-20T07:15:43.998Z,55.98
2018-03-20T07:18:12.466Z,54.80
2018-03-20T07:20:41.288Z,54.47
2018-03-20T07:23:09.905Z,53.20
2018-03-20T07:25:38.979Z,52.53
2018-03-20T07:28:06.589Z,53.06
2018-03-20T07:30:34.180Z,53.28
2018-03-20T07:33:02.255Z,52.75
2018-03-20T07:35:29.886Z,51.92
2018-03-20T07:37:57.457Z,52.63
2018-03-20T07:40:25.964Z,52.01
2018-03-20T07:42:53.519Z,51.30
2018-03-20T07:45:21.140Z,51.09
2018-03-20T07:47:48.688Z,50.70
2018-03-20T07:50:16.323Z,50.56
2018-03-20T07:52:44.053Z,50.72
2018-03-20T07:55:12.654Z,50.68
2018-03-20T07:57:40.778Z,50.25
2018-03-20T08:00:09.784Z,50.31
2018-03-20T08:02:37.370Z,49.50
2018-03-20T08:05:05.298Z,49.72
2018-03-20T08:07:32.861Z,49.68
2018-03-20T08:10:01.130Z,49.58
2018-03-20T08:12:28.712Z,49.11
2018-03-20T08:14:56.363Z,49.11
2018-03-20T08:17:23.935Z,48.75
2018-03-20T08:19:51.529Z,48.58
2018-03-20T08:22:19.616Z,48.75
2018-03-20T08:24:48.048Z,48.28
2018-03-20T08:27:16.930Z,48.70
2018-03-20T08:29:44.497Z,48.89
2018-03-20T08:32:12.768Z,48.45
2018-03-20T08:34:40.512Z,48.56
2018-03-20T08:37:08.125Z,48.89
2018-03-20T08:39:35.893Z,48.68
2018-03-20T08:42:03.476Z,48.75
2018-03-20T08:44:31.088Z,48.87
2018-03-20T08:46:58.757Z,48.96
2018-03-20T08:49:26.916Z,48.71
2018-03-20T08:51:54.990Z,48.02
2018-03-20T08:54:23.092Z,48.19
2018-03-20T08:56:50.639Z,48.27
2018-03-20T08:59:18.342Z,48.18
2018-03-20T09:01:46.497Z,48.16
2018-03-20T09:04:14.199Z,48.59
2018-03-20T09:06:42.075Z,49.54
2018-03-20T09:09:09.624Z,49.34
2018-03-20T09:11:37.470Z,49.18
2018-03-20T09:14:05.020Z,48.77
2018-03-20T09:16:32.640Z,48.73
2018-03-20T09:19:01.182Z,48.45
2018-03-20T09:21:28.788Z,48.47
2018-03-20T09:23:56.528Z,48.45
2018-03-20T09:26:24.085Z,48.75
2018-03-20T09:28:52.480Z,48.76
2018-03-20T09:31:20.445Z,49.43
2018-03-20T09:33:48.214Z,49.19
2018-03-20T09:36:16.171Z,50.20
2018-03-20T09:38:43.952Z,49.37
2018-03-20T09:41:11.809Z,49.73
2018-03-20T09:43:39.378Z,49.30
2018-03-20T09:46:06.980Z,50.60
2018-03-20T09:48:34.534Z,50.76
2018-03-20T09:51:02.838Z,50.80
2018-03-20T09:53:30.443Z,51.79
2018-03-20T09:55:58.000Z,51.35
2018-03-20T09:58:26.504Z,51.01
2018-03-20T10:00:55.644Z,50.61
2018-03-20T10:03:23.827Z,50.42
2018-03-20T10:05:52.779Z,50.04
2018-03-20T10:08:20.520Z,50.82
2018-03-20T10:10:48.062Z,50.97
2018-03-20T10:13:15.657Z,50.71
2018-03-20T10:15:43.258Z,50.32
2018-03-20T10:18:10.871Z,50.74
2018-03-20T10:20:39.349Z,50.90
2018-03-20T10:23:07.164Z,51.12
2018-03-20T10:25:34.893Z,50.95
2018-03-20T10:28:02.436Z,51.46
2018-03-20T10:30:30.117Z,51.50
2018-03-20T10:32:57.986Z,51.47
2018-03-20T10:35:25.611Z,51.27
2018-03-20T10:37:53.270Z,50.64
2018-03-20T10:40:20.886Z,50.62
2018-03-20T10:42:48.492Z,50.68
2018-03-20T10:45:16.116Z,50.65
2018-03-20T10:47:43.673Z,50.66
2018-03-20T10:50:11.362Z,50.88
2018-03-20T10:52:39.098Z,50.94
2018-03-20T10:55:06.722Z,50.60
2018-03-20T10:57:34.949Z,50.62
2018-03-20T11:00:02.512Z,50.73
2018-03-20T11:02:32.083Z,50.68
2018-03-20T11:05:00.051Z,50.79
2018-03-20T11:07:27.612Z,50.49
2018-03-20T11:09:55.208Z,49.87
2018-03-20T11:12:22.830Z,49.73
2018-03-20T11:14:50.446Z,49.76
2018-03-20T11:17:19.198Z,49.98
2018-03-20T11:19:46.801Z,51.14
2018-03-20T11:22:14.364Z,51.15
2018-03-20T11:24:42.211Z,50.86
2018-03-20T11:27:09.767Z,50.79
2018-03-20T11:29:37.764Z,50.85
2018-03-20T11:32:05.330Z,51.05
2018-03-20T11:34:32.945Z,50.98
2018-03-20T11:37:01.627Z,50.88
2018-03-20T11:39:29.367Z,51.08
2018-03-20T11:41:57.594Z,51.20
2018-03-20T11:44:25.166Z,51.06
2018-03-20T11:46:52.973Z,50.88
2018-03-20T11:49:20.583Z,50.89
2018-03-20T11:51:48.145Z,50.74
2018-03-20T11:54:16.104Z,50.77
2018-03-20T11:56:44.037Z,50.76
2018-03-20T11:59:11.637Z,51.42
2018-03-20T12:01:39.394Z,51.04
2018-03-20T12:04:07.058Z,51.08
2018-03-20T12:06:34.698Z,51.03
2018-03-20T12:09:12.144Z,51.14
2018-03-20T12:11:39.834Z,50.97
2018-03-20T12:14:07.394Z,50.57
2018-03-20T12:16:35.178Z,50.97
2018-03-20T12:19:03.025Z,50.50
2018-03-20T12:21:30.582Z,50.55
2018-03-20T12:23:58.193Z,50.31
2018-03-20T12:26:25.764Z,50.37
2018-03-20T12:28:53.395Z,50.46
2018-03-20T12:31:20.998Z,50.63
2018-03-20T12:33:48.770Z,50.71
2018-03-20T12:36:16.336Z,50.94
2018-03-20T12:38:43.931Z,50.86
2018-03-20T12:41:11.735Z,51.19
2018-03-20T12:43:39.332Z,51.27
2018-03-20T12:46:07.289Z,51.79
2018-03-20T12:48:35.045Z,51.88
2018-03-20T12:51:02.602Z,51.92
2018-03-20T12:53:40.447Z,51.90
2018-03-20T12:56:08.058Z,51.77
2018-03-20T12:58:36.348Z,51.43
2018-03-20T13:01:03.981Z,51.26
2018-03-20T13:03:31.562Z,51.16
2018-03-20T13:05:59.202Z,51.06
2018-03-20T13:08:27.074Z,51.16
2018-03-20T13:10:54.672Z,51.29
2018-03-20T13:13:22.488Z,51.60
2018-03-20T13:15:50.061Z,51.83
2018-03-20T13:18:17.656Z,51.88
2018-03-20T13:20:45.209Z,51.56
2018-03-20T13:23:12.931Z,51.73
2018-03-20T13:25:40.699Z,51.56
2018-03-20T13:28:08.286Z,51.45
2018-03-20T13:30:35.939Z,51.19
2018-03-20T13:33:03.542Z,51.23
2018-03-20T13:35:31.133Z,51.14
2018-03-20T13:37:58.713Z,51.04
2018-03-20T13:40:26.312Z,51.07
2018-03-20T13:42:53.856Z,51.08
2018-03-20T13:45:21.465Z,51.15
2018-03-20T13:47:49.054Z,51.22
2018-03-20T13:50:16.819Z,51.33
2018-03-20T13:52:49.144Z,51.54
2018-03-20T13:55:12.190Z,51.57
2018-03-20T13:57:39.779Z,51.33
2018-03-20T14:00:07.491Z,51.25
2018-03-20T14:02:35.136Z,51.14
2018-03-20T14:05:02.736Z,51.04
2018-03-20T14:07:30.517Z,51.13
2018-03-20T14:09:58.139Z,51.27
2018-03-20T14:12:25.692Z,51.25
2018-03-20T14:14:53.300Z,51.36
2018-03-20T14:17:20.897Z,51.18
2018-03-20T14:19:48.728Z,51.23
2018-03-20T14:22:16.498Z,50.82
2018-03-20T14:24:44.244Z,50.79
2018-03-20T14:27:12.818Z,51.63
2018-03-20T14:29:41.187Z,51.07
2018-03-20T14:32:09.252Z,51.03
2018-03-20T14:34:37.195Z,50.31
2018-03-20T14:37:04.965Z,49.43
2018-03-20T14:39:33.026Z,49.91
2018-03-20T14:42:00.576Z,50.13
2018-03-20T14:44:28.875Z,50.62
2018-03-20T14:46:56.439Z,51.23
2018-03-20T14:49:24.495Z,51.15
2018-03-20T14:51:52.069Z,50.81
2018-03-20T14:54:19.686Z,50.64
2018-03-20T14:56:47.232Z,50.08
2018-03-20T14:59:15.716Z,50.32
2018-03-20T15:01:44.660Z,50.60
2018-03-20T15:04:12.274Z,50.86
2018-03-20T15:06:39.850Z,51.18
2018-03-20T15:09:07.635Z,51.32
2018-03-20T15:11:35.490Z,51.24
2018-03-20T15:14:03.079Z,51.24
2018-03-20T15:16:30.681Z,51.34
2018-03-20T15:18:58.250Z,50.82
2018-03-20T15:21:26.544Z,51.26
2018-03-20T15:23:54.101Z,51.22
2018-03-20T15:26:22.379Z,51.13
2018-03-20T15:28:50.286Z,50.93
2018-03-20T15:31:18.363Z,51.77
2018-03-20T15:33:45.964Z,51.97
2018-03-20T15:36:13.565Z,52.01
2018-03-20T15:38:41.115Z,52.05
2018-03-20T15:41:09.101Z,52.13
2018-03-20T15:43:36.729Z,52.10
2018-03-20T15:46:04.558Z,52.14
2018-03-20T15:48:32.419Z,52.06
2018-03-20T15:50:59.990Z,52.12
2018-03-20T15:53:27.777Z,52.33
2018-03-20T15:55:55.339Z,52.77
2018-03-20T15:58:22.915Z,52.79
2018-03-20T16:00:50.846Z,52.75
2018-03-20T16:03:18.805Z,52.81
2018-03-20T16:05:46.370Z,52.80
2018-03-20T16:08:14.340Z,52.73
2018-03-20T16:10:41.891Z,52.63
2018-03-20T16:13:09.505Z,52.65
2018-03-20T16:15:37.063Z,52.65
2018-03-20T16:18:04.652Z,52.64
2018-03-20T16:20:32.273Z,52.55
2018-03-20T16:23:01.445Z,52.66
2018-03-20T16:25:29.653Z,52.68
2018-03-20T16:27:57.503Z,52.76
2018-03-20T16:30:25.615Z,52.85
2018-03-20T16:32:53.758Z,53.14
2018-03-20T16:35:21.850Z,53.91
2018-03-20T16:37:50.323Z,53.98
2018-03-20T16:40:18.736Z,53.86
2018-03-20T16:42:46.987Z,53.76
2018-03-20T16:45:15.407Z,53.72
2018-03-20T16:47:44.918Z,53.70
2018-03-20T16:50:12.874Z,53.64
2018-03-20T16:52:41.104Z,53.75
2018-03-20T16:55:08.998Z,53.72
2018-03-20T16:57:37.043Z,53.69
2018-03-20T17:00:05.409Z,53.66
2018-03-20T17:02:33.787Z,53.64
2018-03-20T17:05:02.473Z,53.67
2018-03-20T17:07:30.666Z,53.72
2018-03-20T17:10:00.210Z,53.72
2018-03-20T17:12:29.447Z,53.74
2018-03-20T17:14:58.083Z,53.82
2018-03-20T17:17:27.896Z,53.85
2018-03-20T17:19:56.087Z,53.90
2018-03-20T17:22:25.222Z,54.03
2018-03-20T17:24:53.925Z,54.68
2018-03-20T17:27:22.191Z,54.44
2018-03-20T17:29:52.135Z,55.70
2018-03-20T17:32:21.341Z,57.54
2018-03-20T17:34:49.662Z,58.73
2018-03-20T17:37:18.464Z,59.89
2018-03-20T17:39:47.260Z,60.39
2018-03-20T17:42:16.149Z,59.82
2018-03-20T17:44:44.816Z,58.81
2018-03-20T17:47:13.522Z,58.19
2018-03-20T17:49:42.231Z,57.70
2018-03-20T17:52:10.577Z,57.68
2018-03-20T17:54:39.328Z,58.12
2018-03-20T17:57:07.542Z,58.93
2018-03-20T17:59:36.325Z,58.53
2018-03-20T18:02:04.968Z,58.58
2018-03-20T18:04:34.743Z,59.53
2018-03-20T18:07:03.612Z,59.75
2018-03-20T18:09:32.609Z,59.02
2018-03-20T18:12:02.514Z,58.46
2018-03-20T18:17:03.630Z,59.32
2018-03-20T18:19:32.250Z,58.88
2018-03-20T18:22:00.746Z,59.20
2018-03-20T18:24:29.144Z,59.82
2018-03-20T18:26:57.335Z,60.64
2018-03-20T18:29:26.078Z,62.86
2018-03-20T18:31:55.379Z,63.35
2018-03-20T18:34:24.007Z,62.42
2018-03-20T18:36:53.147Z,61.04
2018-03-20T18:39:22.929Z,60.35
2018-03-20T18:41:54.371Z,60.07
2018-03-20T18:44:22.803Z,59.70
2018-03-20T18:46:51.358Z,59.19
2018-03-20T18:49:20.886Z,58.51
2018-03-20T18:51:50.088Z,58.19
2018-03-20T18:54:18.386Z,58.31
2018-03-20T18:56:48.312Z,58.25
2018-03-20T18:59:16.555Z,58.63
2018-03-20T19:01:44.621Z,58.44
2018-03-20T19:04:13.822Z,58.53
2018-03-20T19:06:42.509Z,58.91
2018-03-20T19:09:11.620Z,59.24
2018-03-20T19:11:41.720Z,60.32
2018-03-20T19:14:09.977Z,60.88
2018-03-20T19:16:38.117Z,60.11
2018-03-20T19:19:08.042Z,59.52
2018-03-20T19:21:37.437Z,59.14
2018-03-20T19:24:05.567Z,59.44
2018-03-20T19:26:33.818Z,60.91
2018-03-20T19:29:03.610Z,62.40
2018-03-20T19:31:32.117Z,61.53
2018-03-20T19:34:00.458Z,61.33
2018-03-20T19:36:28.792Z,63.46
2018-03-20T19:38:58.974Z,64.90
2018-03-20T19:41:29.326Z,62.91
2018-03-20T19:44:00.412Z,63.27
2018-03-20T19:46:29.405Z,63.45
2018-03-20T19:48:59.683Z,62.81
2018-03-20T19:51:29.764Z,62.98
2018-03-20T19:53:59.193Z,63.94
2018-03-20T19:56:28.191Z,64.21
2018-03-20T19:58:57.443Z,64.46
2018-03-20T20:01:25.693Z,63.95
2018-03-20T20:03:54.688Z,62.73
2018-03-20T20:06:22.926Z,62.67
2018-03-20T20:08:51.703Z,61.69
2018-03-20T20:11:21.529Z,60.94
2018-03-20T20:13:50.217Z,60.44
2018-03-20T20:16:19.518Z,60.68
2018-03-20T20:18:47.894Z,60.54
2018-03-20T20:21:16.889Z,60.48
2018-03-20T20:23:45.878Z,61.99
2018-03-20T20:26:14.207Z,64.01
2018-03-20T20:28:42.416Z,63.60
2018-03-20T20:31:10.801Z,63.72
2018-03-20T20:33:41.183Z,65.06
2018-03-20T20:36:10.844Z,66.59
2018-03-20T20:38:39.875Z,66.75
2018-03-20T20:41:08.114Z,66.82
2018-03-20T20:43:36.582Z,67.52
2018-03-20T20:46:06.396Z,68.47
2018-03-20T20:48:34.446Z,67.57
2018-03-20T20:51:03.005Z,65.84
2018-03-20T20:53:31.096Z,64.78
2018-03-20T20:55:58.902Z,65.08
2018-03-20T20:58:26.518Z,64.19
2018-03-20T21:00:54.155Z,63.23
2018-03-20T21:03:22.849Z,62.56
2018-03-20T21:05:50.701Z,61.98
2018-03-20T21:08:18.553Z,61.55
2018-03-20T21:10:46.467Z,61.49
2018-03-20T21:13:14.040Z,61.16
2018-03-20T21:15:41.613Z,61.82
2018-03-20T21:18:10.434Z,62.76
2018-03-20T21:20:38.043Z,62.67
2018-03-20T21:23:06.445Z,62.08
2018-03-20T21:25:34.007Z,61.58
2018-03-20T21:28:02.624Z,61.07
2018-03-20T21:30:30.395Z,60.69
2018-03-20T21:32:58.644Z,60.37
2018-03-20T21:35:26.222Z,60.13
2018-03-20T21:37:55.657Z,59.92
2018-03-20T21:40:23.261Z,59.77
2018-03-20T21:42:50.824Z,59.56
2018-03-20T21:45:18.926Z,60.02
2018-03-20T21:47:47.110Z,59.90
2018-03-20T21:50:14.676Z,59.80
2018-03-20T21:52:43.468Z,59.58
2018-03-20T21:55:11.399Z,59.41
2018-03-20T21:57:38.977Z,59.26
2018-03-20T22:00:06.617Z,59.23
2018-03-20T22:02:35.008Z,59.09
2018-03-20T22:05:02.585Z,58.89
2018-03-20T22:07:30.722Z,58.83
2018-03-20T22:09:58.281Z,58.87
2018-03-20T22:12:25.919Z,58.78
2018-03-20T22:14:53.521Z,58.82
2018-03-20T22:17:22.095Z,58.72
2018-03-20T22:19:49.898Z,58.56
2018-03-20T22:22:18.037Z,58.58
2018-03-20T22:24:46.517Z,59.32
2018-03-20T22:27:14.459Z,59.67
2018-03-20T22:29:42.035Z,60.80
2018-03-20T22:32:09.711Z,61.52
2018-03-20T22:34:37.661Z,62.01
2018-03-20T22:37:05.260Z,62.12
2018-03-20T22:39:33.138Z,62.66
2018-03-20T22:42:00.932Z,62.06
2018-03-20T22:44:28.548Z,61.40
2018-03-20T22:46:56.153Z,60.83
2018-03-20T22:49:24.158Z,60.66
2018-03-20T22:51:52.563Z,60.27
2018-03-20T22:54:20.174Z,59.95
2018-03-20T22:56:49.068Z,59.69
2018-03-20T22:59:18.016Z,59.40
2018-03-20T23:01:45.563Z,59.15
2018-03-20T23:04:13.171Z,59.06
2018-03-20T23:06:40.742Z,58.92
2018-03-20T23:09:08.873Z,59.55
2018-03-20T23:11:36.484Z,59.47
2018-03-20T23:14:04.341Z,60.99
2018-03-20T23:16:31.947Z,61.24
2018-03-20T23:18:59.549Z,61.12
2018-03-20T23:21:27.127Z,61.54
2018-03-20T23:23:54.722Z,62.29
2018-03-20T23:26:22.272Z,63.88
2018-03-20T23:28:49.867Z,64.85
2018-03-20T23:31:17.416Z,65.64
2018-03-20T23:33:44.973Z,66.29
2018-03-20T23:36:12.564Z,65.79
2018-03-20T23:38:40.127Z,65.41
2018-03-20T23:41:08.703Z,64.62
2018-03-20T23:43:36.286Z,64.44
2018-03-20T23:46:03.943Z,64.55
2018-03-20T23:48:31.540Z,64.48
2018-03-20T23:50:59.506Z,63.74
2018-03-20T23:53:27.076Z,63.53
2018-03-20T23:55:54.676Z,63.46
2018-03-20T23:58:22.277Z,65.04
